createdAt,value
2023-04-30T00:01:00.360Z,20.50
2023-04-30T00:03:27.429Z,21.00
2023-04-30T00:05:54.503Z,20.27
2023-04-30T00:08:21.475Z,23.02
2023-04-30T00:10:48.701Z,19.92
2023-04-30T00:13:15.568Z,24.33
2023-04-30T00:15:42.719Z,21.98
2023-04-30T00:18:09.673Z,23.40
2023-04-30T00:20:36.585Z,23.55
2023-04-30T00:23:03.691Z,21.67
2023-04-30T00:25:30.628Z,24.52
2023-04-30T00:27:57.584Z,22.60
2023-04-30T00:30:24.455Z,24.92
2023-04-30T00:32:51.412Z,20.85
2023-04-30T00:35:18.553Z,23.58
2023-04-30T00:37:45.922Z,23.85
2023-04-30T00:40:13.379Z,26.85
2023-04-30T00:42:40.635Z,24.00
2023-04-30T00:45:08.585Z,26.95
2023-04-30T00:47:35.878Z,22.20
2023-04-30T00:50:02.889Z,24.05
2023-04-30T00:52:29.906Z,22.80
2023-04-30T00:54:57.679Z,24.75
2023-04-30T00:57:25.578Z,28.25
2023-04-30T00:59:53.016Z,22.90
2023-04-30T01:02:20.476Z,27.27
2023-04-30T01:04:47.636Z,26.75
2023-04-30T01:07:14.573Z,26.85
2023-04-30T01:09:41.600Z,24.05
2023-04-30T01:12:20.517Z,24.73
2023-04-30T01:14:59.302Z,29.23
2023-04-30T01:18:08.096Z,27.92
2023-04-30T01:20:39.621Z,29.92
2023-04-30T01:23:36.749Z,25.02
2023-04-30T01:26:59.534Z,25.33
2023-04-30T01:29:28.099Z,25.10
2023-04-30T01:31:54.955Z,31.20
2023-04-30T01:34:24.935Z,28.67
2023-04-30T01:37:29.439Z,28.20
2023-04-30T01:40:11.481Z,22.13
2023-04-30T01:43:12.779Z,29.67
2023-04-30T01:46:16.680Z,29.65
2023-04-30T01:48:56.457Z,26.58
2023-04-30T01:51:38.574Z,29.80
2023-04-30T01:55:00.493Z,26.60
2023-04-30T01:57:42.349Z,35.67
2023-04-30T02:00:13.702Z,30.08
2023-04-30T02:02:41.110Z,29.60
2023-04-30T02:05:08.549Z,32.50
2023-04-30T02:07:44.266Z,34.15
2023-04-30T02:10:14.986Z,34.40
2023-04-30T02:12:41.884Z,34.92
2023-04-30T02:15:09.890Z,34.08
2023-04-30T02:17:37.213Z,36.20
2023-04-30T02:20:04.932Z,35.65
2023-04-30T02:22:31.870Z,34.67
2023-04-30T02:24:59.844Z,35.88
2023-04-30T02:27:27.607Z,33.33
2023-04-30T02:29:54.832Z,42.20
2023-04-30T02:32:22.691Z,39.40
2023-04-30T02:34:50.027Z,37.40
2023-04-30T02:37:17.144Z,38.10
2023-04-30T02:39:44.100Z,37.13
2023-04-30T02:42:11.467Z,40.92
2023-04-30T02:44:38.335Z,42.25
2023-04-30T02:47:05.725Z,40.90
2023-04-30T02:49:32.615Z,46.95
2023-04-30T02:51:59.782Z,37.05
2023-04-30T02:54:26.669Z,44.53
2023-04-30T02:56:53.812Z,42.63
2023-04-30T02:59:21.101Z,45.08
2023-04-30T03:01:48.151Z,51.05
2023-04-30T03:04:15.054Z,47.08
2023-04-30T03:06:41.983Z,49.75
2023-04-30T03:09:09.043Z,49.13
2023-04-30T03:11:37.894Z,55.25
2023-04-30T03:14:08.111Z,54.60
2023-04-30T03:16:35.123Z,61.60
2023-04-30T03:19:02.024Z,57.97
2023-04-30T03:21:29.320Z,57.13
2023-04-30T03:23:56.296Z,58.60
2023-04-30T03:26:23.201Z,51.72
2023-04-30T03:28:50.395Z,52.42
2023-04-30T03:31:17.310Z,64.80
2023-04-30T03:33:44.363Z,63.72
2023-04-30T03:36:11.250Z,61.45
2023-04-30T03:38:38.178Z,65.85
2023-04-30T03:41:05.803Z,59.17
2023-04-30T03:43:32.727Z,58.05
2023-04-30T03:45:59.744Z,56.20
2023-04-30T03:48:27.476Z,58.78
2023-04-30T03:50:54.502Z,62.53
2023-04-30T03:53:21.757Z,60.08
2023-04-30T03:55:50.242Z,62.42
2023-04-30T03:58:17.592Z,57.05
2023-04-30T04:00:46.067Z,55.20
2023-04-30T04:03:13.205Z,56.88
2023-04-30T04:05:40.101Z,56.90
2023-04-30T04:08:08.121Z,54.60
2023-04-30T04:10:35.692Z,54.03
2023-04-30T04:13:02.616Z,50.90
2023-04-30T04:15:29.814Z,48.70
2023-04-30T04:17:56.868Z,47.40
2023-04-30T04:20:23.851Z,51.03
2023-04-30T04:22:51.243Z,50.15
2023-04-30T04:25:18.421Z,52.72
2023-04-30T04:27:45.769Z,43.40
2023-04-30T04:30:13.896Z,44.17
2023-04-30T04:32:46.899Z,45.92
2023-04-30T04:35:19.188Z,47.03
2023-04-30T04:37:46.532Z,45.92
2023-04-30T04:40:13.833Z,47.33
2023-04-30T04:42:40.897Z,44.65
2023-04-30T04:45:08.876Z,39.55
2023-04-30T04:47:36.951Z,39.25
2023-04-30T04:50:04.183Z,36.58
2023-04-30T04:52:31.179Z,38.80
2023-04-30T04:54:58.404Z,34.05
2023-04-30T04:57:25.982Z,34.33
2023-04-30T04:59:53.547Z,30.90
2023-04-30T05:02:21.481Z,30.00
2023-04-30T05:04:50.676Z,30.92
2023-04-30T05:07:18.483Z,29.42
2023-04-30T05:09:49.558Z,29.58
2023-04-30T05:12:16.651Z,26.33
2023-04-30T05:14:44.209Z,27.23
2023-04-30T05:17:11.311Z,26.90
2023-04-30T05:19:38.192Z,24.92
2023-04-30T05:22:05.975Z,25.27
2023-04-30T05:24:33.113Z,22.92
2023-04-30T05:27:00.112Z,26.08
2023-04-30T05:29:26.989Z,25.05
2023-04-30T05:31:54.813Z,25.10
2023-04-30T05:34:21.810Z,27.30
2023-04-30T05:36:48.881Z,25.92
2023-04-30T05:39:15.932Z,20.85
2023-04-30T05:41:42.977Z,23.73
2023-04-30T05:44:09.857Z,21.65
2023-04-30T05:46:37.238Z,21.30
2023-04-30T05:49:04.180Z,23.98
2023-04-30T05:51:31.197Z,21.98
2023-04-30T05:53:58.129Z,22.15
2023-04-30T05:56:25.570Z,20.63
2023-04-30T05:58:53.110Z,19.63
2023-04-30T06:01:21.356Z,21.45
2023-04-30T06:03:48.289Z,23.73
2023-04-30T06:06:15.289Z,21.77
2023-04-30T06:08:45.159Z,22.70
2023-04-30T06:11:13.630Z,25.48
2023-04-30T06:13:41.273Z,24.48
2023-04-30T06:16:08.867Z,22.70
2023-04-30T06:18:36.414Z,28.33
2023-04-30T06:21:03.482Z,22.23
2023-04-30T06:23:30.445Z,27.98
2023-04-30T06:25:57.709Z,21.00
2023-04-30T06:28:24.770Z,23.40
2023-04-30T06:30:52.300Z,22.45
2023-04-30T06:33:19.223Z,24.40
2023-04-30T06:35:46.136Z,26.02
2023-04-30T06:38:13.928Z,23.00
2023-04-30T06:40:41.011Z,27.42
2023-04-30T06:43:08.016Z,26.08
2023-04-30T06:45:35.646Z,25.88
2023-04-30T06:48:02.640Z,22.88
2023-04-30T06:50:29.620Z,24.92
2023-04-30T06:52:56.572Z,25.50
2023-04-30T06:55:23.899Z,25.48
2023-04-30T06:57:54.721Z,25.10
2023-04-30T07:00:21.691Z,26.80
2023-04-30T07:02:52.272Z,26.63
2023-04-30T07:05:19.431Z,27.45
2023-04-30T07:07:46.845Z,28.67
2023-04-30T07:10:13.753Z,26.30
2023-04-30T07:12:40.621Z,25.05
2023-04-30T07:15:08.336Z,26.13
2023-04-30T07:17:35.562Z,26.45
2023-04-30T07:20:02.641Z,29.05
2023-04-30T07:22:29.683Z,26.85
2023-04-30T07:24:56.749Z,26.23
2023-04-30T07:27:24.093Z,24.55
2023-04-30T07:29:52.062Z,26.90
2023-04-30T07:32:18.986Z,23.15
2023-04-30T07:34:45.979Z,24.90
2023-04-30T07:37:13.696Z,24.00
2023-04-30T07:39:41.024Z,25.13
2023-04-30T07:42:07.891Z,26.60
2023-04-30T07:44:34.760Z,27.60
2023-04-30T07:47:01.817Z,26.52
2023-04-30T07:49:29.132Z,21.25
2023-04-30T07:51:56.670Z,26.52
2023-04-30T07:54:23.849Z,22.33
2023-04-30T07:56:50.729Z,23.80
2023-04-30T07:59:17.948Z,28.95
2023-04-30T08:01:45.463Z,24.48
2023-04-30T08:04:12.709Z,23.83
2023-04-30T08:06:39.711Z,25.02
2023-04-30T08:09:06.659Z,25.58
2023-04-30T08:11:33.751Z,23.13
2023-04-30T08:14:00.788Z,24.67
2023-04-30T08:16:27.966Z,25.63
2023-04-30T08:18:54.896Z,28.58
2023-04-30T08:21:21.973Z,28.20
2023-04-30T08:23:49.312Z,28.00
2023-04-30T08:26:16.187Z,28.90
2023-04-30T08:28:43.169Z,26.27
2023-04-30T08:31:10.514Z,31.92
2023-04-30T08:33:37.393Z,28.33
2023-04-30T08:36:04.673Z,28.02
2023-04-30T08:38:31.573Z,34.55
2023-04-30T08:41:11.545Z,36.70
2023-04-30T08:43:38.992Z,30.08
2023-04-30T08:46:06.896Z,32.90
2023-04-30T08:48:34.589Z,31.08
2023-04-30T08:51:04.941Z,35.97
2023-04-30T08:53:35.330Z,29.67
2023-04-30T08:56:03.790Z,28.63
2023-04-30T08:58:31.034Z,33.28
2023-04-30T09:01:00.230Z,29.85
2023-04-30T09:03:28.643Z,33.97
2023-04-30T09:05:56.494Z,29.63
2023-04-30T09:08:47.457Z,29.13
2023-04-30T09:11:30.834Z,26.00
2023-04-30T09:14:00.858Z,28.55
2023-04-30T09:16:46.562Z,34.03
2023-04-30T09:19:30.901Z,29.25
2023-04-30T09:21:58.592Z,29.25
2023-04-30T09:24:25.880Z,27.92
2023-04-30T09:26:54.601Z,32.92
2023-04-30T09:29:21.559Z,32.42
2023-04-30T09:31:48.722Z,29.90
2023-04-30T09:34:16.268Z,36.03
2023-04-30T09:36:57.072Z,35.85
2023-04-30T09:39:24.367Z,37.65
2023-04-30T09:41:52.334Z,38.20
2023-04-30T09:44:40.632Z,28.45
2023-04-30T09:47:16.204Z,33.55
2023-04-30T09:49:46.773Z,35.67
2023-04-30T09:52:16.399Z,34.05
2023-04-30T09:54:45.986Z,29.17
2023-04-30T09:57:15.849Z,27.83
2023-04-30T09:59:47.424Z,25.60
2023-04-30T10:02:17.161Z,25.52
2023-04-30T10:04:45.806Z,21.58
2023-04-30T10:07:25.220Z,23.40
2023-04-30T10:10:00.624Z,24.08
2023-04-30T10:12:48.660Z,24.33
2023-04-30T10:15:21.016Z,23.08
2023-04-30T10:17:58.436Z,24.85
2023-04-30T10:20:27.087Z,24.30
2023-04-30T10:22:54.725Z,24.08
2023-04-30T10:25:23.794Z,23.02
2023-04-30T10:27:52.065Z,22.45
2023-04-30T10:30:19.138Z,21.30
2023-04-30T10:33:16.781Z,20.95
2023-04-30T10:36:04.525Z,19.25
2023-04-30T10:38:32.996Z,20.38
2023-04-30T10:41:04.090Z,20.27
2023-04-30T10:43:31.764Z,22.15
2023-04-30T10:45:59.271Z,22.83
2023-04-30T10:48:27.559Z,22.60
2023-04-30T10:51:01.339Z,22.83
2023-04-30T10:53:32.226Z,19.35
2023-04-30T10:56:09.670Z,21.27
2023-04-30T10:58:41.656Z,22.70
2023-04-30T11:01:15.832Z,20.50
2023-04-30T11:04:07.296Z,20.83
2023-04-30T11:06:52.828Z,19.70
2023-04-30T11:09:21.841Z,24.40
2023-04-30T11:12:04.002Z,23.08
2023-04-30T11:14:34.404Z,21.15
2023-04-30T11:17:02.670Z,25.30
2023-04-30T11:19:34.860Z,20.77
2023-04-30T11:22:04.525Z,20.05
2023-04-30T11:24:59.519Z,20.70
2023-04-30T11:27:32.459Z,20.15
2023-04-30T11:30:00.931Z,22.73
2023-04-30T11:32:37.588Z,20.60
2023-04-30T11:35:06.940Z,22.02
2023-04-30T11:37:38.046Z,20.38
2023-04-30T11:40:11.334Z,22.35
2023-04-30T11:42:40.191Z,24.08
2023-04-30T11:45:13.198Z,22.83
2023-04-30T11:47:49.426Z,23.25
2023-04-30T11:50:19.803Z,26.17
2023-04-30T11:52:53.033Z,25.70
2023-04-30T11:55:22.577Z,26.02
2023-04-30T11:57:53.290Z,23.70
2023-04-30T12:00:27.335Z,27.45
2023-04-30T12:02:55.605Z,27.80
2023-04-30T12:05:28.385Z,27.73
2023-04-30T12:08:06.884Z,27.80
2023-04-30T12:10:34.172Z,28.77
2023-04-30T12:13:01.463Z,30.40
2023-04-30T12:15:29.309Z,26.67
2023-04-30T12:18:00.751Z,29.50
2023-04-30T12:20:31.479Z,31.17
2023-04-30T12:22:58.927Z,28.27
2023-04-30T12:25:29.617Z,26.65
2023-04-30T12:27:59.965Z,28.63
2023-04-30T12:30:27.829Z,35.15
2023-04-30T12:32:58.851Z,29.08
2023-04-30T12:35:29.970Z,29.42
2023-04-30T12:38:08.433Z,28.63
2023-04-30T12:40:35.931Z,30.05
2023-04-30T12:43:08.769Z,29.02
2023-04-30T12:45:48.725Z,28.00
2023-04-30T12:48:16.519Z,28.15
2023-04-30T12:51:01.020Z,26.92
2023-04-30T12:53:28.999Z,27.85
2023-04-30T12:56:15.495Z,32.25
2023-04-30T12:58:50.303Z,33.45
2023-04-30T13:01:23.333Z,28.95
2023-04-30T13:03:51.679Z,32.53
2023-04-30T13:06:18.832Z,28.88
2023-04-30T13:08:58.060Z,32.38
2023-04-30T13:11:27.349Z,24.40
2023-04-30T13:13:57.609Z,31.10
2023-04-30T13:16:25.691Z,31.58
2023-04-30T13:18:53.619Z,29.52
2023-04-30T13:21:21.664Z,28.23
2023-04-30T13:23:52.654Z,27.40
2023-04-30T13:26:20.792Z,30.25
2023-04-30T13:28:47.659Z,25.17
2023-04-30T13:31:14.653Z,26.08
2023-04-30T13:33:41.855Z,27.13
2023-04-30T13:36:08.817Z,24.88
2023-04-30T13:38:35.691Z,22.17
2023-04-30T13:41:02.731Z,14.65
2023-04-30T13:43:29.608Z,15.20
2023-04-30T13:45:56.677Z,18.13
2023-04-30T13:48:23.843Z,16.55
2023-04-30T13:50:52.682Z,18.25
2023-04-30T13:53:20.029Z,18.33
2023-04-30T13:55:46.993Z,22.10
2023-04-30T13:58:14.209Z,22.70
2023-04-30T14:00:41.423Z,23.65
2023-04-30T14:03:08.683Z,21.80
2023-04-30T14:05:36.936Z,24.55
2023-04-30T14:08:05.025Z,23.13
2023-04-30T14:10:33.144Z,20.67
2023-04-30T14:13:00.256Z,19.27
2023-04-30T14:15:30.875Z,23.67
2023-04-30T14:17:58.147Z,22.67
2023-04-30T14:20:25.974Z,22.35
2023-04-30T14:22:53.257Z,20.77
2023-04-30T14:25:20.779Z,21.77
2023-04-30T14:27:47.844Z,24.27
2023-04-30T14:30:17.916Z,21.02
2023-04-30T14:32:44.889Z,21.77
2023-04-30T14:35:11.820Z,23.58
2023-04-30T14:37:38.743Z,26.08
2023-04-30T14:40:08.485Z,24.73
2023-04-30T14:42:35.448Z,26.73
2023-04-30T14:45:02.501Z,27.33
2023-04-30T14:47:29.638Z,27.77
2023-04-30T14:49:59.276Z,27.70
2023-04-30T14:52:26.244Z,28.05
2023-04-30T14:54:53.265Z,23.95
2023-04-30T14:57:20.631Z,25.55
2023-04-30T14:59:47.849Z,24.58
2023-04-30T15:02:15.270Z,23.13
2023-04-30T15:04:46.288Z,24.35
2023-04-30T15:07:13.496Z,25.27
2023-04-30T15:09:40.565Z,21.65
2023-04-30T15:12:07.472Z,20.58
2023-04-30T15:14:34.302Z,19.98
2023-04-30T15:17:01.386Z,17.48
2023-04-30T15:19:28.614Z,16.58
2023-04-30T15:21:55.482Z,17.10
2023-04-30T15:24:22.592Z,14.90
2023-04-30T15:26:51.377Z,15.07
2023-04-30T15:29:18.347Z,11.70
2023-04-30T15:31:45.322Z,11.15
2023-04-30T15:34:12.263Z,11.30
2023-04-30T15:36:39.439Z,10.85
2023-04-30T15:39:06.319Z,10.23
2023-04-30T15:41:33.188Z,12.27
2023-04-30T15:44:00.651Z,10.82
2023-04-30T15:46:27.662Z,10.05
2023-04-30T15:48:54.669Z,10.68
2023-04-30T15:51:21.585Z,10.30
2023-04-30T15:53:48.800Z,9.10
2023-04-30T15:56:18.705Z,10.77
2023-04-30T15:58:45.619Z,10.15
2023-04-30T16:01:13.073Z,11.73
2023-04-30T16:03:40.211Z,12.60
2023-04-30T16:06:07.580Z,11.93
2023-04-30T16:08:34.733Z,11.35
2023-04-30T16:11:01.986Z,10.60
2023-04-30T16:13:29.129Z,9.35
2023-04-30T16:15:56.312Z,13.65
2023-04-30T16:18:23.468Z,12.73
2023-04-30T16:20:50.470Z,11.77
2023-04-30T16:23:17.557Z,13.45
2023-04-30T16:25:45.758Z,13.85
2023-04-30T16:28:12.626Z,11.43
2023-04-30T16:30:39.723Z,13.57
2023-04-30T16:33:07.287Z,12.68
2023-04-30T16:35:34.419Z,13.30
2023-04-30T16:38:02.803Z,13.77
2023-04-30T16:40:29.706Z,12.38
2023-04-30T16:42:56.925Z,12.55
2023-04-30T16:45:23.836Z,13.27
2023-04-30T16:47:51.133Z,12.68
2023-04-30T16:50:19.298Z,12.75
2023-04-30T16:52:46.243Z,14.80
2023-04-30T16:55:14.096Z,14.20
2023-04-30T16:57:41.113Z,11.98
2023-04-30T17:00:12.025Z,11.77
2023-04-30T17:02:41.012Z,11.52
2023-04-30T17:05:11.606Z,11.27
2023-04-30T17:07:38.784Z,12.98
2023-04-30T17:10:06.758Z,12.55
2023-04-30T17:12:33.690Z,13.00
2023-04-30T17:15:00.652Z,14.30
2023-04-30T17:17:27.519Z,12.18
2023-04-30T17:19:54.664Z,11.05
2023-04-30T17:22:21.744Z,11.20
2023-04-30T17:24:49.179Z,11.70
2023-04-30T17:27:16.344Z,11.93
2023-04-30T17:29:43.461Z,11.93
2023-04-30T17:32:11.416Z,13.55
2023-04-30T17:34:38.622Z,11.85
2023-04-30T17:37:06.018Z,13.63
2023-04-30T17:39:32.921Z,12.25
2023-04-30T17:42:00.066Z,11.82
2023-04-30T17:44:27.084Z,13.15
2023-04-30T17:46:54.202Z,12.18
2023-04-30T17:49:21.253Z,12.35
2023-04-30T17:51:48.642Z,12.73
2023-04-30T17:54:15.714Z,15.18
2023-04-30T17:56:42.836Z,11.95
2023-04-30T17:59:09.789Z,11.63
2023-04-30T18:01:38.366Z,11.50
2023-04-30T18:04:08.902Z,11.70
2023-04-30T18:06:36.753Z,12.90
2023-04-30T18:09:04.872Z,16.38
2023-04-30T18:11:32.001Z,12.50
2023-04-30T18:13:58.928Z,13.70
2023-04-30T18:16:25.928Z,17.02
2023-04-30T18:18:52.817Z,17.20
2023-04-30T18:21:19.785Z,17.38
2023-04-30T18:23:47.607Z,17.77
2023-04-30T18:26:14.494Z,21.30
2023-04-30T18:28:42.718Z,24.23
2023-04-30T18:31:09.673Z,22.17
2023-04-30T18:33:36.903Z,19.17
2023-04-30T18:36:06.117Z,19.52
2023-04-30T18:38:34.029Z,21.13
2023-04-30T18:41:02.014Z,21.80
2023-04-30T18:43:28.972Z,21.45
2023-04-30T18:45:56.073Z,21.23
2023-04-30T18:48:23.292Z,20.40
2023-04-30T18:50:50.934Z,23.83
2023-04-30T18:53:18.932Z,20.08
2023-04-30T18:55:46.378Z,20.60
2023-04-30T18:58:13.598Z,20.45
2023-04-30T19:00:43.497Z,17.75
2023-04-30T19:03:10.785Z,19.48
2023-04-30T19:05:38.277Z,19.15
2023-04-30T19:08:05.174Z,19.08
2023-04-30T19:10:34.925Z,22.05
2023-04-30T19:13:02.350Z,20.83
2023-04-30T19:15:30.253Z,19.55
2023-04-30T19:17:58.051Z,20.63
2023-04-30T19:20:25.087Z,22.40
2023-04-30T19:22:52.002Z,22.85
2023-04-30T19:25:18.960Z,22.45
2023-04-30T19:27:47.313Z,28.75
2023-04-30T19:30:14.771Z,22.70
2023-04-30T19:32:42.285Z,23.88
2023-04-30T19:35:09.540Z,25.40
2023-04-30T19:37:36.965Z,23.65
2023-04-30T19:40:10.725Z,26.63
2023-04-30T19:42:39.317Z,22.83
2023-04-30T19:45:09.045Z,23.60
2023-04-30T19:47:36.935Z,21.23
2023-04-30T19:50:04.078Z,28.67
2023-04-30T19:52:30.985Z,26.15
2023-04-30T19:54:58.769Z,30.65
2023-04-30T19:57:26.350Z,24.85
2023-04-30T19:59:53.402Z,27.13
2023-04-30T20:02:20.510Z,28.25
2023-04-30T20:04:47.496Z,26.52
2023-04-30T20:07:14.543Z,33.70
2023-04-30T20:09:41.730Z,37.35
2023-04-30T20:12:08.729Z,34.70
2023-04-30T20:14:36.069Z,32.85
2023-04-30T20:17:03.116Z,30.27
2023-04-30T20:19:30.420Z,28.58
2023-04-30T20:21:57.465Z,30.98
2023-04-30T20:24:24.900Z,32.03
2023-04-30T20:26:51.780Z,30.17
2023-04-30T20:29:20.888Z,32.22
2023-04-30T20:31:48.073Z,35.47
2023-04-30T20:34:14.996Z,35.20
2023-04-30T20:36:41.879Z,33.03
2023-04-30T20:39:09.163Z,33.80
2023-04-30T20:41:36.458Z,33.25
2023-04-30T20:44:03.330Z,31.67
2023-04-30T20:46:32.408Z,32.67
2023-04-30T20:49:04.245Z,30.33
2023-04-30T20:51:31.656Z,33.22
2023-04-30T20:53:58.564Z,35.78
2023-04-30T20:56:26.180Z,35.30
2023-04-30T20:58:54.086Z,34.33
2023-04-30T21:01:21.125Z,34.70
2023-04-30T21:03:49.492Z,35.95
2023-04-30T21:06:17.990Z,36.72
2023-04-30T21:08:44.978Z,37.20
2023-04-30T21:11:14.340Z,38.50
2023-04-30T21:13:41.956Z,40.15
2023-04-30T21:16:09.082Z,40.72
2023-04-30T21:18:35.992Z,43.03
2023-04-30T21:21:05.170Z,38.05
2023-04-30T21:23:32.944Z,39.25
2023-04-30T21:25:59.891Z,42.22
2023-04-30T21:28:27.054Z,36.15
2023-04-30T21:30:54.104Z,48.55
2023-04-30T21:33:21.216Z,40.75
2023-04-30T21:35:48.103Z,40.28
2023-04-30T21:38:15.005Z,47.25
2023-04-30T21:40:43.541Z,44.13
2023-04-30T21:43:10.424Z,46.38
2023-04-30T21:45:37.331Z,50.45
2023-04-30T21:48:05.858Z,48.90
2023-04-30T21:50:34.040Z,45.13
2023-04-30T21:53:03.471Z,44.33
2023-04-30T21:55:30.842Z,55.83
2023-04-30T21:57:57.922Z,42.80
2023-04-30T22:00:25.536Z,43.78
2023-04-30T22:02:52.519Z,45.55
2023-04-30T22:05:22.667Z,45.63
2023-04-30T22:07:49.690Z,44.95
2023-04-30T22:10:16.594Z,43.60
2023-04-30T22:12:47.183Z,41.95
2023-04-30T22:15:15.451Z,43.08
2023-04-30T22:17:42.533Z,47.80
2023-04-30T22:20:10.279Z,39.83
2023-04-30T22:22:37.254Z,44.42
2023-04-30T22:25:04.986Z,40.05
2023-04-30T22:27:32.326Z,39.10
2023-04-30T22:29:59.328Z,42.78
2023-04-30T22:32:26.538Z,38.00
2023-04-30T22:34:53.598Z,40.00
2023-04-30T22:37:20.528Z,39.45
2023-04-30T22:39:48.622Z,33.53
2023-04-30T22:42:17.099Z,34.60
2023-04-30T22:44:45.609Z,34.47
2023-04-30T22:47:12.770Z,31.67
2023-04-30T22:49:39.848Z,29.98
2023-04-30T22:52:07.544Z,30.42
2023-04-30T22:54:35.906Z,30.40
2023-04-30T22:57:03.300Z,27.23
2023-04-30T22:59:30.250Z,25.05
2023-04-30T23:01:57.451Z,25.05
2023-04-30T23:04:26.173Z,23.05
2023-04-30T23:06:53.660Z,20.38
2023-04-30T23:09:20.523Z,24.95
2023-04-30T23:11:48.501Z,20.67
2023-04-30T23:14:15.513Z,19.58
2023-04-30T23:16:43.140Z,21.95
2023-04-30T23:19:10.577Z,25.05
2023-04-30T23:21:38.035Z,15.27
2023-04-30T23:24:05.326Z,19.23
2023-04-30T23:26:32.239Z,17.90
2023-04-30T23:28:59.629Z,22.80
2023-04-30T23:31:27.449Z,19.67
2023-04-30T23:33:54.520Z,20.05
2023-04-30T23:36:21.442Z,21.25
2023-04-30T23:38:48.332Z,21.35
2023-04-30T23:41:15.757Z,21.38
2023-04-30T23:43:42.635Z,20.60
2023-04-30T23:46:09.841Z,19.73
2023-04-30T23:48:36.965Z,18.38
2023-04-30T23:51:06.031Z,24.20
2023-04-30T23:53:32.904Z,22.92
2023-04-30T23:56:00.518Z,23.75
2023-04-30T23:58:31.840Z,17.27
